Terminal Aerodrome Forecast
Issued by NWS

Home | Current Version | Previous Version | Text Only | Print | Product List | Glossary On
Versions: 1 2 3 4 5 6 7 8 9 10 11 12 13 14 15 16 17 18 19 20 21 22 23 24 25 26 27 28 29 30 31 32 33
532
FTUS41 KAKQ 230145 AAA
TAFPHF
TAF AMD
KPHF 230145Z 2302/2324 04005KT 4SM BR OVC005
      TEMPO 2302/2305 2SM BR OVC003
     FM230500 06006KT 2SM SHRA BR OVC003
     FM230700 07011KT 1/2SM +SHRA FG OVC003
     FM231000 08014G22KT 1 1/2SM SHRA BR OVC003
     FM231500 12009KT 3SM SHRA BR OVC003
     FM231700 18007KT P6SM OVC006
     FM232000 29005KT P6SM BKN015=

USA.gov is the U.S. government's official web portal to all federal, state and local government web resources and services.